Time,TemperatureF,DewpointF,PressureIn,WindDirection,WindDirectionDegrees,WindSpeedMPH,WindSpeedGustMPH,Humidity,HourlyPrecipIn,Conditions,Clouds,dailyrainin,SolarRadiationWatts/m^2,SoftwareType,DateUTC
2013-08-29 00:09:00,59.3,59.0,29.94,North,360,0.0,0.0,97,0.00,,,0.01,0,weatherlink.com 1.10,2013-08-29 07:09:00,
2013-08-29 00:24:00,59.2,58.0,29.95,North,360,0.0,0.0,97,0.00,,,0.00,0,weatherlink.com 1.10,2013-08-29 07:24:00,
2013-08-29 00:40:00,59.1,58.0,29.95,North,-999,0.0,0.0,97,0.01,,,0.01,0,weatherlink.com 1.10,2013-08-29 07:40:00,
2013-08-29 00:55:00,58.9,58.0,29.95,North,360,0.0,0.0,97,0.01,,,0.01,0,weatherlink.com 1.10,2013-08-29 07:55:00,
2013-08-29 01:10:00,58.7,58.0,29.95,North,-999,0.0,0.0,97,0.01,,,0.01,0,weatherlink.com 1.10,2013-08-29 08:10:00,
2013-08-29 01:25:00,58.6,58.0,29.95,North,-999,0.0,0.0,97,0.01,,,0.01,0,weatherlink.com 1.10,2013-08-29 08:25:00,
2013-08-29 01:40:00,58.6,58.0,29.95,North,-999,0.0,0.0,97,0.00,,,0.01,0,weatherlink.com 1.10,2013-08-29 08:40:00,
2013-08-29 01:55:00,58.5,58.0,29.95,North,-999,0.0,0.0,97,0.00,,,0.01,0,weatherlink.com 1.10,2013-08-29 08:55:00,
2013-08-29 02:10:00,58.6,58.0,29.95,North,-999,0.0,0.0,97,0.00,,,0.01,0,weatherlink.com 1.10,2013-08-29 09:10:00,
2013-08-29 02:25:00,58.5,58.0,29.95,North,-999,0.0,0.0,97,0.00,,,0.01,0,weatherlink.com 1.10,2013-08-29 09:25:00,
2013-08-29 02:40:00,58.4,58.0,29.96,North,360,0.0,0.0,97,0.00,,,0.01,0,weatherlink.com 1.10,2013-08-29 09:40:00,
2013-08-29 02:55:00,58.3,58.0,29.96,North,360,0.0,0.0,97,0.00,,,0.01,0,weatherlink.com 1.10,2013-08-29 09:55:00,
2013-08-29 03:10:00,58.3,58.0,29.96,North,-999,0.0,0.0,97,0.00,,,0.01,0,weatherlink.com 1.10,2013-08-29 10:10:00,
2013-08-29 03:25:00,58.4,58.0,29.96,North,360,0.0,0.0,97,0.00,,,0.01,0,weatherlink.com 1.10,2013-08-29 10:25:00,
2013-08-29 03:40:00,58.4,58.0,29.96,North,-999,0.0,0.0,97,0.00,,,0.01,0,weatherlink.com 1.10,2013-08-29 10:40:00,
2013-08-29 03:55:00,58.4,58.0,29.96,North,-999,0.0,0.0,97,0.00,,,0.01,0,weatherlink.com 1.10,2013-08-29 10:55:00,
2013-08-29 04:10:00,58.3,58.0,29.96,North,-999,0.0,0.0,97,0.00,,,0.01,0,weatherlink.com 1.10,2013-08-29 11:10:00,
2013-08-29 04:25:00,58.3,58.0,29.96,North,-999,0.0,0.0,97,0.00,,,0.01,0,weatherlink.com 1.10,2013-08-29 11:25:00,
2013-08-29 04:40:00,58.3,58.0,29.96,North,360,0.0,0.0,97,0.00,,,0.01,0,weatherlink.com 1.10,2013-08-29 11:40:00,
2013-08-29 04:55:00,58.4,58.0,29.96,North,360,0.0,0.0,97,0.01,,,0.02,0,weatherlink.com 1.10,2013-08-29 11:55:00,
2013-08-29 05:10:00,58.4,58.0,29.96,North,360,0.0,0.0,97,0.01,,,0.02,0,weatherlink.com 1.10,2013-08-29 12:10:00,
2013-08-29 05:25:00,58.4,58.0,29.97,North,-999,0.0,0.0,97,0.01,,,0.02,0,weatherlink.com 1.10,2013-08-29 12:25:00,
2013-08-29 05:40:00,58.4,58.0,29.97,North,360,0.0,0.0,97,0.01,,,0.02,0,weatherlink.com 1.10,2013-08-29 12:40:00,
2013-08-29 05:55:00,58.2,57.0,29.97,North,-999,0.0,0.0,97,0.00,,,0.02,0,weatherlink.com 1.10,2013-08-29 12:55:00,
2013-08-29 06:10:00,58.0,57.0,29.97,North,-999,0.0,0.0,97,0.00,,,0.02,0,weatherlink.com 1.10,2013-08-29 13:10:00,
2013-08-29 06:25:00,57.8,57.0,29.98,North,360,0.0,0.0,97,0.00,,,0.02,0,weatherlink.com 1.10,2013-08-29 13:25:00,
2013-08-29 06:40:00,57.6,57.0,29.98,North,-999,0.0,0.0,97,0.00,,,0.02,0,weatherlink.com 1.10,2013-08-29 13:40:00,
2013-08-29 06:55:00,57.7,57.0,29.99,North,360,0.0,0.0,97,0.00,,,0.02,11,weatherlink.com 1.10,2013-08-29 13:55:00,
2013-08-29 07:10:00,57.9,57.0,30.00,North,-999,0.0,0.0,98,0.00,,,0.02,21,weatherlink.com 1.10,2013-08-29 14:10:00,
2013-08-29 07:25:00,58.4,58.0,30.00,North,-999,0.0,0.0,98,0.00,,,0.02,26,weatherlink.com 1.10,2013-08-29 14:25:00,
2013-08-29 07:40:00,58.7,58.0,30.00,North,360,0.0,0.0,98,0.00,,,0.02,51,weatherlink.com 1.10,2013-08-29 14:40:00,
2013-08-29 07:55:00,59.1,59.0,30.01,North,360,0.0,0.0,98,0.00,,,0.02,60,weatherlink.com 1.10,2013-08-29 14:55:00,
2013-08-29 08:10:00,59.4,59.0,30.01,North,-999,0.0,0.0,98,0.00,,,0.02,51,weatherlink.com 1.10,2013-08-29 15:10:00,
2013-08-29 08:25:00,59.9,59.0,30.02,North,-999,0.0,0.0,98,0.00,,,0.02,125,weatherlink.com 1.10,2013-08-29 15:25:00,
2013-08-29 08:40:00,60.3,60.0,30.02,North,-999,0.0,0.0,98,0.00,,,0.02,146,weatherlink.com 1.10,2013-08-29 15:40:00,
2013-08-29 08:55:00,60.6,60.0,30.03,North,-999,0.0,0.0,98,0.00,,,0.02,174,weatherlink.com 1.10,2013-08-29 15:55:00,
2013-08-29 09:10:00,60.7,60.0,30.03,North,-999,0.0,0.0,98,0.00,,,0.02,195,weatherlink.com 1.10,2013-08-29 16:10:00,
2013-08-29 09:25:00,60.7,60.0,30.04,North,-999,0.0,0.0,98,0.00,,,0.02,192,weatherlink.com 1.10,2013-08-29 16:25:00,
2013-08-29 09:40:00,60.8,60.0,30.04,North,-999,0.0,0.0,98,0.00,,,0.02,346,weatherlink.com 1.10,2013-08-29 16:40:00,
2013-08-29 09:56:00,61.2,61.0,30.04,North,-999,0.0,0.0,98,0.00,,,0.02,334,weatherlink.com 1.10,2013-08-29 16:56:00,
2013-08-29 10:11:00,61.6,61.0,30.04,North,-999,0.0,0.0,98,0.00,,,0.02,369,weatherlink.com 1.10,2013-08-29 17:11:00,
2013-08-29 10:26:00,62.4,62.0,30.04,North,-999,0.0,0.0,98,0.00,,,0.02,346,weatherlink.com 1.10,2013-08-29 17:26:00,
2013-08-29 10:41:00,62.7,62.0,30.04,North,-999,0.0,0.0,98,0.00,,,0.02,404,weatherlink.com 1.10,2013-08-29 17:41:00,
2013-08-29 10:56:00,62.9,62.0,30.05,North,-999,0.0,0.0,97,0.00,,,0.02,563,weatherlink.com 1.10,2013-08-29 17:56:00,
2013-08-29 11:11:00,63.2,62.0,30.05,North,-999,0.0,0.0,97,0.00,,,0.02,387,weatherlink.com 1.10,2013-08-29 18:11:00,
2013-08-29 11:26:00,63.6,63.0,30.05,North,-999,0.0,0.0,96,0.00,,,0.02,396,weatherlink.com 1.10,2013-08-29 18:26:00,
2013-08-29 11:41:00,64.1,62.0,30.06,North,-999,0.0,0.0,93,0.00,,,0.02,341,weatherlink.com 1.10,2013-08-29 18:41:00,
2013-08-29 11:56:00,65.1,63.0,30.06,North,-999,0.0,0.0,91,0.00,,,0.02,714,weatherlink.com 1.10,2013-08-29 18:56:00,
2013-08-29 12:11:00,65.5,62.0,30.05,North,360,0.0,0.0,88,0.00,,,0.02,603,weatherlink.com 1.10,2013-08-29 19:11:00,
2013-08-29 12:26:00,65.9,62.0,30.05,North,360,0.0,0.0,87,0.00,,,0.02,374,weatherlink.com 1.10,2013-08-29 19:26:00,
2013-08-29 12:41:00,65.6,62.0,30.05,North,360,0.0,0.0,87,0.00,,,0.02,814,weatherlink.com 1.10,2013-08-29 19:41:00,
2013-08-29 12:56:00,65.8,62.0,30.05,North,-999,0.0,0.0,87,0.00,,,0.02,777,weatherlink.com 1.10,2013-08-29 19:56:00,
2013-08-29 13:11:00,66.2,62.0,30.05,North,-999,0.0,0.0,85,0.00,,,0.02,722,weatherlink.com 1.10,2013-08-29 20:11:00,
2013-08-29 13:26:00,66.1,62.0,30.05,North,-999,0.0,0.0,85,0.00,,,0.02,403,weatherlink.com 1.10,2013-08-29 20:26:00,
2013-08-29 13:41:00,65.9,61.0,30.05,North,-999,0.0,0.0,85,0.00,,,0.02,796,weatherlink.com 1.10,2013-08-29 20:41:00,
2013-08-29 13:56:00,66.2,62.0,30.05,North,-999,0.0,0.0,85,0.00,,,0.02,879,weatherlink.com 1.10,2013-08-29 20:56:00,
2013-08-29 14:11:00,66.3,62.0,30.05,North,-999,0.0,0.0,85,0.00,,,0.02,534,weatherlink.com 1.10,2013-08-29 21:11:00,
2013-08-29 14:26:00,66.6,61.0,30.04,North,-999,0.0,0.0,83,0.00,,,0.02,369,weatherlink.com 1.10,2013-08-29 21:26:00,
2013-08-29 14:41:00,66.4,62.0,30.04,North,360,0.0,0.0,84,0.00,,,0.02,81,weatherlink.com 1.10,2013-08-29 21:41:00,
2013-08-29 14:56:00,65.8,61.0,30.04,North,360,0.0,0.0,85,0.00,,,0.02,76,weatherlink.com 1.10,2013-08-29 21:56:00,
2013-08-29 15:11:00,65.3,61.0,30.04,North,360,0.0,0.0,86,0.00,,,0.02,51,weatherlink.com 1.10,2013-08-29 22:11:00,
2013-08-29 15:26:00,65.1,61.0,30.03,North,-999,0.0,0.0,86,0.00,,,0.02,53,weatherlink.com 1.10,2013-08-29 22:26:00,
2013-08-29 15:41:00,65.0,61.0,30.03,North,-999,0.0,0.0,87,0.00,,,0.02,70,weatherlink.com 1.10,2013-08-29 22:41:00,
2013-08-29 15:56:00,64.7,61.0,30.02,North,-999,0.0,0.0,86,0.00,,,0.02,79,weatherlink.com 1.10,2013-08-29 22:56:00,
2013-08-29 16:11:00,64.7,61.0,30.03,North,-999,0.0,0.0,87,0.00,,,0.02,58,weatherlink.com 1.10,2013-08-29 23:11:00,
2013-08-29 16:26:00,64.6,61.0,30.02,North,-999,0.0,0.0,87,0.00,,,0.02,111,weatherlink.com 1.10,2013-08-29 23:26:00,
2013-08-29 16:41:00,64.4,61.0,30.02,North,360,0.0,0.0,88,0.00,,,0.02,97,weatherlink.com 1.10,2013-08-29 23:41:00,
2013-08-29 16:56:00,64.1,61.0,30.02,North,360,0.0,0.0,89,0.00,,,0.02,135,weatherlink.com 1.10,2013-08-29 23:56:00,
2013-08-29 17:11:00,63.9,61.0,30.01,North,-999,0.0,0.0,89,0.00,,,0.02,121,weatherlink.com 1.10,2013-08-30 00:11:00,
2013-08-29 17:26:00,63.5,61.0,30.02,North,-999,0.0,0.0,90,0.00,,,0.02,107,weatherlink.com 1.10,2013-08-30 00:26:00,
2013-08-29 17:41:00,63.1,60.0,30.01,North,-999,0.0,0.0,90,0.00,,,0.02,81,weatherlink.com 1.10,2013-08-30 00:41:00,
2013-08-29 17:56:00,62.7,60.0,30.01,North,-999,0.0,0.0,91,0.00,,,0.02,86,weatherlink.com 1.10,2013-08-30 00:56:00,
2013-08-29 18:11:00,62.4,60.0,30.00,North,-999,0.0,0.0,91,0.00,,,0.02,49,weatherlink.com 1.10,2013-08-30 01:11:00,
2013-08-29 18:26:00,62.0,60.0,30.00,North,-999,0.0,0.0,92,0.00,,,0.02,19,weatherlink.com 1.10,2013-08-30 01:26:00,
2013-08-29 18:41:00,61.9,60.0,30.00,North,360,0.0,0.0,92,0.00,,,0.02,37,weatherlink.com 1.10,2013-08-30 01:41:00,
2013-08-29 18:56:00,61.5,59.0,30.00,North,360,0.0,0.0,92,0.00,,,0.02,18,weatherlink.com 1.10,2013-08-30 01:56:00,
2013-08-29 19:11:00,61.1,59.0,30.00,North,360,0.0,0.0,93,0.00,,,0.02,18,weatherlink.com 1.10,2013-08-30 02:11:00,
2013-08-29 19:26:00,60.8,59.0,29.99,North,-999,0.0,0.0,94,0.00,,,0.02,9,weatherlink.com 1.10,2013-08-30 02:26:00,
2013-08-29 19:41:00,60.5,59.0,29.99,North,-999,0.0,0.0,94,0.00,,,0.02,0,weatherlink.com 1.10,2013-08-30 02:41:00,
2013-08-29 19:56:00,60.5,59.0,29.99,North,-999,0.0,0.0,94,0.00,,,0.02,0,weatherlink.com 1.10,2013-08-30 02:56:00,
2013-08-29 20:11:00,60.4,59.0,30.00,North,-999,0.0,0.0,95,0.00,,,0.02,0,weatherlink.com 1.10,2013-08-30 03:11:00,
2013-08-29 20:26:00,60.2,59.0,30.00,North,360,0.0,0.0,95,0.00,,,0.02,0,weatherlink.com 1.10,2013-08-30 03:26:00,
2013-08-29 20:41:00,60.1,59.0,30.01,North,360,0.0,0.0,95,0.00,,,0.02,0,weatherlink.com 1.10,2013-08-30 03:41:00,
2013-08-29 20:56:00,60.2,59.0,30.01,North,360,0.0,0.0,96,0.00,,,0.02,0,weatherlink.com 1.10,2013-08-30 03:56:00,
2013-08-29 21:11:00,60.3,59.0,30.02,North,-999,0.0,0.0,96,0.00,,,0.02,0,weatherlink.com 1.10,2013-08-30 04:11:00,
2013-08-29 21:26:00,60.4,59.0,30.02,North,-999,0.0,0.0,96,0.00,,,0.02,0,weatherlink.com 1.10,2013-08-30 04:26:00,
2013-08-29 21:41:00,60.4,59.0,30.01,North,-999,0.0,0.0,96,0.00,,,0.02,0,weatherlink.com 1.10,2013-08-30 04:41:00,
2013-08-29 21:56:00,60.4,59.0,30.02,North,-999,0.0,0.0,96,0.00,,,0.02,0,weatherlink.com 1.10,2013-08-30 04:56:00,
2013-08-29 22:11:00,60.4,59.0,30.02,North,-999,0.0,0.0,96,0.00,,,0.02,0,weatherlink.com 1.10,2013-08-30 05:11:00,
2013-08-29 22:26:00,60.4,59.0,30.02,North,-999,0.0,0.0,96,0.00,,,0.02,0,weatherlink.com 1.10,2013-08-30 05:26:00,
2013-08-29 22:41:00,60.2,59.0,30.02,North,360,0.0,0.0,96,0.00,,,0.02,0,weatherlink.com 1.10,2013-08-30 05:41:00,
2013-08-29 22:56:00,60.2,59.0,30.02,North,-999,0.0,0.0,96,0.00,,,0.02,0,weatherlink.com 1.10,2013-08-30 05:56:00,
2013-08-29 23:11:00,60.0,59.0,30.02,North,-999,0.0,0.0,96,0.00,,,0.02,0,weatherlink.com 1.10,2013-08-30 06:11:00,
2013-08-29 23:26:00,59.8,59.0,30.02,North,-999,0.0,0.0,96,0.00,,,0.02,0,weatherlink.com 1.10,2013-08-30 06:26:00,
2013-08-29 23:41:00,59.7,59.0,30.02,North,-999,0.0,0.0,96,0.00,,,0.02,0,weatherlink.com 1.10,2013-08-30 06:41:00,
2013-08-29 23:56:00,59.6,59.0,30.02,North,-999,0.0,0.0,96,0.00,,,0.02,0,weatherlink.com 1.10,2013-08-30 06:56:00,